Time;durP1;ratioP1;P1;durP2;ratioP2;P2;SDS_P1;SDS_P2;PMS_P1;PMS_P2;Temp;Humidity;BMP_temperature;BMP_pressure;BME280_temperature;BME280_humidity;BME280_pressure;Samples;Min_cycle;Max_cycle;Signal;HPM_P1;HPM_P2
2022/08/08 00:00:00;;;;;;;6.77;5.23;;;;;14.50;101945.00;;;;10430850;28;20263;-81
2022/08/08 00:05:25;;;;;;;8.43;4.77;;;;;14.40;101941.00;;;;10455594;28;20219;-81
2022/08/08 00:10:51;;;;;;;5.60;4.67;;;;;14.40;101944.00;;;;10455176;28;20265;-81
2022/08/08 00:16:00;;;;;;;7.33;5.37;;;;;14.30;101947.00;;;;10452010;28;20217;-81
2022/08/08 00:21:05;;;;;;;7.57;5.83;;;;;14.20;101950.00;;;;10436098;28;20223;-81
2022/08/08 00:26:12;;;;;;;8.87;5.23;;;;;14.10;101951.00;;;;10433625;28;20194;-81
2022/08/08 00:31:22;;;;;;;9.20;5.40;;;;;14.00;101955.00;;;;10437471;28;20189;-81
2022/08/08 00:36:53;;;;;;;10.93;6.33;;;;;14.00;101946.00;;;;10454098;28;20205;-81
2022/08/08 00:42:21;;;;;;;9.37;6.13;;;;;13.90;101948.00;;;;10450606;28;20190;-81
2022/08/08 00:48:09;;;;;;;7.77;5.10;;;;;13.90;101937.00;;;;10449754;28;20197;-81
2022/08/08 00:54:09;;;;;;;8.40;6.30;;;;;13.70;101935.00;;;;10452506;28;20201;-81
2022/08/08 00:59:38;;;;;;;7.23;6.53;;;;;13.70;101941.00;;;;10416864;28;20587;-81
2022/08/08 01:05:11;;;;;;;8.50;6.80;;;;;13.60;101934.00;;;;10442601;28;20225;-81
2022/08/08 01:10:52;;;;;;;7.97;6.60;;;;;13.60;101938.00;;;;10451277;28;20218;-81
2022/08/08 01:16:44;;;;;;;8.37;6.57;;;;;13.50;101932.00;;;;10433769;28;20206;-81
2022/08/08 01:22:22;;;;;;;10.30;7.27;;;;;13.40;101935.00;;;;10450422;28;20201;-80
2022/08/08 01:28:01;;;;;;;11.63;7.13;;;;;13.30;101931.00;;;;10427907;28;20186;-81
2022/08/08 01:33:32;;;;;;;11.50;7.80;;;;;13.30;101927.00;;;;10411914;28;20194;-81
2022/08/08 01:39:16;;;;;;;10.03;7.50;;;;;13.20;101925.00;;;;10451651;28;20186;-81
2022/08/08 01:44:31;;;;;;;11.17;8.30;;;;;13.20;101931.00;;;;10408736;28;20194;-81
2022/08/08 01:50:05;;;;;;;12.07;9.20;;;;;13.20;101933.00;;;;10408089;28;20182;-81
2022/08/08 01:55:39;;;;;;;11.37;8.70;;;;;13.10;101936.00;;;;10391712;28;20246;-81
2022/08/08 02:01:10;;;;;;;14.23;9.43;;;;;13.00;101944.00;;;;10417378;28;20198;-81
2022/08/08 02:07:00;;;;;;;16.07;10.33;;;;;13.00;101939.00;;;;10465687;28;20224;-81
2022/08/08 02:12:23;;;;;;;14.77;10.40;;;;;13.00;101940.00;;;;10432674;28;20606;-81
2022/08/08 02:17:52;;;;;;;17.00;11.00;;;;;12.90;101937.00;;;;10448861;28;20292;-81
2022/08/08 02:23:30;;;;;;;16.23;10.37;;;;;12.90;101939.00;;;;10462676;28;20177;-81
2022/08/08 02:28:52;;;;;;;16.67;11.07;;;;;12.80;101925.00;;;;10423552;28;20636;-81
2022/08/08 02:34:08;;;;;;;13.27;10.33;;;;;12.80;101931.00;;;;10422582;28;20186;-81
2022/08/08 02:39:42;;;;;;;12.43;10.47;;;;;12.70;101935.00;;;;10427190;28;20622;-80
2022/08/08 02:45:40;;;;;;;14.80;10.10;;;;;12.60;101937.00;;;;10448521;28;20178;-80
2022/08/08 02:51:27;;;;;;;11.37;8.83;;;;;12.60;101926.00;;;;10387809;28;20204;-81
2022/08/08 02:56:51;;;;;;;11.10;9.23;;;;;12.50;101934.00;;;;10420568;28;20221;-81
2022/08/08 03:02:05;;;;;;;13.33;9.97;;;;;12.40;101937.00;;;;10445793;28;20233;-81
2022/08/08 03:07:31;;;;;;;15.13;11.90;;;;;12.40;101940.00;;;;10446936;28;20246;-81
2022/08/08 03:13:12;;;;;;;15.37;10.87;;;;;12.40;101937.00;;;;10445376;28;20209;-81
2022/08/08 03:18:37;;;;;;;16.57;12.00;;;;;12.40;101929.00;;;;10463897;28;20727;-81
2022/08/08 03:23:41;;;;;;;16.80;11.80;;;;;12.40;101934.00;;;;10430771;28;20304;-81
2022/08/08 03:29:07;;;;;;;14.83;12.47;;;;;12.30;101939.00;;;;10410375;28;20201;-81
2022/08/08 03:34:23;;;;;;;20.20;13.23;;;;;12.20;101943.00;;;;10391114;28;20748;-81
2022/08/08 03:39:28;;;;;;;19.27;14.47;;;;;12.10;101944.00;;;;10396959;28;20229;-81
2022/08/08 03:44:33;;;;;;;20.40;14.53;;;;;12.10;101947.00;;;;10427193;28;20193;-80
2022/08/08 03:49:39;;;;;;;20.03;14.23;;;;;12.00;101949.00;;;;10455191;28;20208;-80
2022/08/08 03:55:01;;;;;;;21.10;15.23;;;;;12.10;101952.00;;;;10455580;28;20228;-80
2022/08/08 04:00:28;;;;;;;21.87;15.20;;;;;12.10;101955.00;;;;10471978;28;20203;-80
2022/08/08 04:05:38;;;;;;;22.30;15.47;;;;;12.10;101959.00;;;;10432824;28;20244;-80
2022/08/08 04:10:53;;;;;;;22.97;16.03;;;;;12.10;101972.00;;;;10446219;28;20244;-80
2022/08/08 04:16:02;;;;;;;24.33;14.57;;;;;12.00;101977.00;;;;10462457;28;20213;-80
2022/08/08 04:21:15;;;;;;;24.17;17.00;;;;;12.00;101982.00;;;;10470187;28;20276;-80
2022/08/08 04:26:26;;;;;;;25.07;18.33;;;;;12.00;101972.00;;;;10451455;28;20193;-80
2022/08/08 04:31:41;;;;;;;24.93;16.87;;;;;12.10;101987.00;;;;10434188;28;20303;-80
2022/08/08 04:37:03;;;;;;;25.47;17.20;;;;;12.20;101976.00;;;;10453238;28;20255;-80
2022/08/08 04:42:07;;;;;;;26.47;19.03;;;;;12.30;101990.00;;;;10467322;28;20178;-80
2022/08/08 04:47:13;;;;;;;27.27;19.40;;;;;12.40;101990.00;;;;10430163;28;20194;-81
2022/08/08 04:52:18;;;;;;;31.77;20.80;;;;;12.60;101998.00;;;;10425145;28;20183;-80
2022/08/08 04:57:26;;;;;;;31.50;19.70;;;;;12.80;102008.00;;;;10394167;28;20250;-80
2022/08/08 05:02:30;;;;;;;25.33;19.30;;;;;12.80;102015.00;;;;10409524;28;20268;-80
2022/08/08 05:07:33;;;;;;;31.77;21.33;;;;;13.00;102008.00;;;;10417946;28;20244;-80
2022/08/08 05:12:45;;;;;;;28.30;19.43;;;;;13.20;102014.00;;;;10413063;28;20210;-80
2022/08/08 05:18:08;;;;;;;30.43;22.17;;;;;13.50;102009.00;;;;10394893;28;20218;-80
2022/08/08 05:23:13;;;;;;;30.43;21.90;;;;;13.70;102016.00;;;;10427098;28;20212;-80
2022/08/08 05:28:18;;;;;;;28.00;21.70;;;;;14.10;102018.00;;;;10448796;28;20235;-80
2022/08/08 05:33:42;;;;;;;28.00;22.00;;;;;14.50;102028.00;;;;10452264;28;20200;-80
2022/08/08 05:38:52;;;;;;;30.10;21.73;;;;;14.80;102017.00;;;;10449765;28;20216;-80
2022/08/08 05:44:15;;;;;;;27.50;21.87;;;;;15.30;102022.00;;;;10453611;28;20359;-78
2022/08/08 05:49:20;;;;;;;25.47;21.00;;;;;15.70;102030.00;;;;10441505;28;20251;-80
2022/08/08 05:54:29;;;;;;;24.03;19.20;;;;;15.80;102021.00;;;;10447471;28;20194;-80
2022/08/08 05:59:51;;;;;;;24.20;19.13;;;;;16.30;102022.00;;;;10450102;28;20186;-81
2022/08/08 06:05:21;;;;;;;20.87;17.43;;;;;16.80;102029.00;;;;10434114;28;20672;-81
2022/08/08 06:10:41;;;;;;;19.80;16.33;;;;;17.20;102033.00;;;;10430542;28;20190;-80
2022/08/08 06:15:48;;;;;;;17.50;15.13;;;;;17.80;102044.00;;;;10397093;28;20197;-81
2022/08/08 06:20:59;;;;;;;21.05;15.27;;;;;18.30;102045.00;;;;10434349;28;20243;-81
2022/08/08 06:26:14;;;;;;;15.93;14.27;;;;;18.80;102049.00;;;;10460013;28;20197;-81
2022/08/08 06:31:37;;;;;;;17.98;13.30;;;;;18.80;102047.00;;;;10443667;28;20178;-79
2022/08/08 06:37:01;;;;;;;15.95;12.40;;;;;19.20;102053.00;;;;10423739;28;20209;-80
2022/08/08 06:42:30;;;;;;;19.70;11.82;;;;;19.40;102057.00;;;;10421088;28;20206;-79
2022/08/08 06:47:36;;;;;;;13.15;11.23;;;;;19.60;102069.00;;;;10421326;28;20194;-79
2022/08/08 06:53:01;;;;;;;12.68;10.77;;;;;20.20;102066.00;;;;10431500;28;20194;-79
2022/08/08 06:58:17;;;;;;;11.27;9.85;;;;;20.80;102069.00;;;;10422371;28;20213;-79
2022/08/08 07:03:51;;;;;;;14.02;10.07;;;;;21.10;102079.00;;;;10421436;28;20304;-79
2022/08/08 07:09:24;;;;;;;10.48;8.60;;;;;21.20;102080.00;;;;10448507;28;20200;-79
2022/08/08 07:14:52;;;;;;;13.05;9.68;;;;;21.60;102081.00;;;;10429955;28;20259;-79
2022/08/08 07:20:06;;;;;;;14.32;9.40;;;;;21.80;102094.00;;;;10440916;28;20647;-78
2022/08/08 07:25:14;;;;;;;9.13;8.05;;;;;21.90;102101.00;;;;10473062;28;20680;-79
2022/08/08 07:30:20;;;;;;;11.15;8.57;;;;;22.20;102109.00;;;;10414076;28;20189;-80
2022/08/08 07:35:30;;;;;;;17.27;8.18;;;;;22.60;102105.00;;;;10425890;28;20292;-79
2022/08/08 07:40:37;;;;;;;10.57;7.57;;;;;22.80;102115.00;;;;10459169;28;20667;-79
2022/08/08 07:45:43;;;;;;;10.95;8.30;;;;;23.10;102117.00;;;;10421238;28;20190;-78
2022/08/08 07:51:08;;;;;;;11.07;8.15;;;;;23.60;102121.00;;;;10453173;28;20197;-78
2022/08/08 07:56:35;;;;;;;7.93;7.03;;;;;23.60;102127.00;;;;10441600;28;20237;-79
2022/08/08 08:01:53;;;;;;;12.63;7.38;;;;;23.90;102135.00;;;;10425773;28;20214;-81
2022/08/08 08:07:17;;;;;;;13.23;7.25;;;;;24.30;102132.00;;;;10421278;28;20190;-81
2022/08/08 08:12:24;;;;;;;9.70;6.28;;;;;24.80;102142.00;;;;10404440;28;20242;-82
2022/08/08 08:17:45;;;;;;;6.93;5.85;;;;;25.20;102137.00;;;;10421308;28;20217;-82
2022/08/08 08:22:53;;;;;;;7.50;6.40;;;;;25.70;102145.00;;;;10434879;28;20740;-81
2022/08/08 08:27:55;;;;;;;7.82;5.22;;;;;26.10;102147.00;;;;10437285;28;20198;-81
2022/08/08 08:32:58;;;;;;;10.75;5.28;;;;;26.40;102145.00;;;;10430021;28;20221;-82
2022/08/08 08:38:02;;;;;;;8.73;5.20;;;;;26.60;102139.00;;;;10435785;28;20328;-82
2022/08/08 08:43:21;;;;;;;6.78;4.38;;;;;26.80;102141.00;;;;10421014;28;20190;-81
2022/08/08 08:48:31;;;;;;;8.18;5.20;;;;;26.90;102139.00;;;;10442852;28;20202;-82
2022/08/08 08:53:48;;;;;;;6.97;4.15;;;;;27.10;102131.00;;;;10411089;28;20203;-81
2022/08/08 08:59:04;;;;;;;8.48;3.90;;;;;27.50;102125.00;;;;10467397;28;20229;-82
2022/08/08 09:04:21;;;;;;;5.47;3.92;;;;;28.00;102128.00;;;;10434744;28;20688;-82
2022/08/08 09:09:49;;;;;;;5.40;3.85;;;;;28.30;102128.00;;;;10441205;28;20198;-82
2022/08/08 09:15:03;;;;;;;7.82;3.42;;;;;28.50;102128.00;;;;10406337;28;20204;-82
2022/08/08 09:20:12;;;;;;;3.67;3.35;;;;;28.90;102136.00;;;;10425476;28;20615;-82
2022/08/08 09:25:38;;;;;;;5.57;3.33;;;;;28.90;102132.00;;;;10440277;28;20181;-82
2022/08/08 09:31:06;;;;;;;6.72;3.13;;;;;29.10;102129.00;;;;10435155;28;20517;-82
2022/08/08 09:36:21;;;;;;;3.22;2.78;;;;;29.30;102110.00;;;;10424649;28;20207;-82
2022/08/08 09:41:36;;;;;;;3.95;2.80;;;;;29.00;102114.00;;;;10424697;28;20228;-83
2022/08/08 09:47:04;;;;;;;3.08;2.30;;;;;29.40;102115.00;;;;10450755;28;20224;-82
2022/08/08 09:52:30;;;;;;;5.28;2.58;;;;;29.80;102110.00;;;;10481657;28;20189;-81
2022/08/08 09:58:07;;;;;;;4.30;2.28;;;;;30.20;102120.00;;;;10418566;28;20264;-81
2022/08/08 10:03:15;;;;;;;3.88;2.50;;;;;30.20;102110.00;;;;10417237;28;20232;-82
2022/08/08 10:08:21;;;;;;;5.95;2.00;;;;;30.30;102108.00;;;;10448059;28;20252;-82
2022/08/08 10:13:27;;;;;;;3.13;2.25;;;;;30.80;102109.00;;;;10462062;28;20200;-83
2022/08/08 10:18:38;;;;;;;3.33;2.03;;;;;30.90;102102.00;;;;10422449;28;20255;-83
2022/08/08 10:23:43;;;;;;;2.08;1.65;;;;;30.80;102101.00;;;;10445861;28;20212;-83
2022/08/08 10:29:06;;;;;;;6.45;2.05;;;;;31.00;102100.00;;;;10430925;28;20603;-82
2022/08/08 10:34:14;;;;;;;6.78;1.90;;;;;31.10;102086.00;;;;10421009;28;20205;-83
2022/08/08 10:39:27;;;;;;;2.25;1.58;;;;;31.60;102095.00;;;;10406621;28;20242;-82
2022/08/08 10:44:45;;;;;;;4.63;1.85;;;;;31.40;102092.00;;;;10451156;28;20189;-83
2022/08/08 10:49:53;;;;;;;2.90;1.75;;;;;31.70;102093.00;;;;10462944;28;20228;-83
2022/08/08 10:55:18;;;;;;;4.18;1.38;;;;;31.60;102105.00;;;;10440765;28;20198;-83
2022/08/08 11:00:44;;;;;;;3.80;1.70;;;;;31.30;102100.00;;;;10408560;28;20189;-83
2022/08/08 11:06:06;;;;;;;1.48;1.17;;;;;32.00;102080.00;;;;10425979;28;20657;-84
2022/08/08 11:11:13;;;;;;;3.00;1.40;;;;;32.10;102080.00;;;;10463667;28;20232;-83
2022/08/08 11:16:41;;;;;;;5.28;1.60;;;;;31.80;102082.00;;;;10434887;28;20228;-80
2022/08/08 11:21:50;;;;;;;3.13;1.50;;;;;32.20;102074.00;;;;10421468;28;20209;-83
2022/08/08 11:27:01;;;;;;;4.82;1.13;;;;;32.60;102082.00;;;;10429695;28;20209;-83
2022/08/08 11:32:25;;;;;;;3.97;1.52;;;;;33.30;102070.00;;;;10481337;28;20205;-83
2022/08/08 11:37:32;;;;;;;8.40;1.52;;;;;33.60;102068.00;;;;10461385;28;20675;-83
2022/08/08 11:42:55;;;;;;;2.50;1.20;;;;;33.80;102055.00;;;;10461823;28;20199;-84
2022/08/08 11:47:57;;;;;;;4.38;1.52;;;;;33.70;102059.00;;;;10429840;28;20649;-83
2022/08/08 11:53:07;;;;;;;1.83;1.20;;;;;33.70;102054.00;;;;10416356;28;20198;-83
2022/08/08 11:58:11;;;;;;;6.50;1.58;;;;;33.20;102041.00;;;;10424684;28;20222;-84
2022/08/08 12:03:19;;;;;;;5.65;1.30;;;;;33.20;102038.00;;;;10464113;28;20296;-83
2022/08/08 12:08:36;;;;;;;4.45;1.70;;;;;31.90;102047.00;;;;10431354;28;20593;-83
2022/08/08 12:13:39;;;;;;;3.38;1.45;;;;;32.80;102036.00;;;;10423354;28;20264;-83
2022/08/08 12:19:09;;;;;;;1.27;1.17;;;;;33.00;102037.00;;;;10441069;28;20247;-83
2022/08/08 12:24:18;;;;;;;2.30;1.48;;;;;30.70;102048.00;;;;10426065;28;20595;-83
2022/08/08 12:29:31;;;;;;;5.60;1.30;;;;;30.30;102027.00;;;;10441881;28;20190;-83
2022/08/08 12:34:55;;;;;;;4.43;1.30;;;;;32.20;102023.00;;;;10452573;28;20193;-83
2022/08/08 12:40:17;;;;;;;2.42;1.10;;;;;33.20;102032.00;;;;10413217;28;20214;-83
2022/08/08 12:45:33;;;;;;;3.05;1.20;;;;;32.00;102032.00;;;;10430319;28;20713;-83
2022/08/08 12:50:57;;;;;;;1.30;0.90;;;;;30.90;102027.00;;;;10397705;28;20221;-83
2022/08/08 12:56:02;;;;;;;4.32;1.10;;;;;32.50;102027.00;;;;10425537;28;20685;-83
2022/08/08 13:01:36;;;;;;;2.40;1.17;;;;;32.00;102022.00;;;;10444420;28;20214;-83
2022/08/08 13:06:39;;;;;;;3.58;0.90;;;;;32.70;102019.00;;;;10425731;28;20182;-83
2022/08/08 13:11:52;;;;;;;2.03;1.30;;;;;30.40;102033.00;;;;10445453;28;20196;-82
2022/08/08 13:17:15;;;;;;;4.43;1.25;;;;;28.90;102031.00;;;;10444335;28;20557;-82
2022/08/08 13:22:38;;;;;;;1.90;0.98;;;;;30.50;102020.00;;;;10412846;28;20175;-83
2022/08/08 13:27:40;;;;;;;3.78;1.25;;;;;32.20;102016.00;;;;10425095;28;20183;-83
2022/08/08 13:32:42;;;;;;;2.85;1.08;;;;;33.50;102011.00;;;;10441770;28;20206;-82
2022/08/08 13:37:44;;;;;;;2.65;1.15;;;;;33.70;102014.00;;;;10437443;28;20225;-83
2022/08/08 13:43:07;;;;;;;2.78;1.27;;;;;34.20;102011.00;;;;10428610;28;20209;-83
2022/08/08 13:48:14;;;;;;;1.48;0.98;;;;;35.50;102011.00;;;;10408275;28;20178;-83
2022/08/08 13:53:29;;;;;;;2.03;1.00;;;;;35.80;102008.00;;;;10391068;28;20281;-83
2022/08/08 13:58:50;;;;;;;4.25;1.35;;;;;36.40;102017.00;;;;10414097;28;20239;-83
2022/08/08 14:04:00;;;;;;;1.30;0.90;;;;;36.80;101995.00;;;;10432698;28;20625;-83
2022/08/08 14:09:09;;;;;;;1.40;0.77;;;;;37.40;102003.00;;;;10433195;28;20232;-82
2022/08/08 14:14:44;;;;;;;3.40;0.95;;;;;37.50;101999.00;;;;10434134;28;20204;-83
2022/08/08 14:19:46;;;;;;;1.02;0.75;;;;;37.70;101995.00;;;;10392759;28;20213;-83
2022/08/08 14:25:09;;;;;;;2.97;0.85;;;;;35.10;101994.00;;;;10426176;28;20186;-83
2022/08/08 14:30:18;;;;;;;1.52;1.00;;;;;38.20;101995.00;;;;10416095;28;20216;-82
2022/08/08 14:35:25;;;;;;;1.27;0.90;;;;;38.50;102003.00;;;;10464925;28;20667;-83
2022/08/08 14:40:40;;;;;;;2.83;0.98;;;;;38.90;101996.00;;;;10432509;28;20295;-83
2022/08/08 14:45:46;;;;;;;2.35;0.75;;;;;39.00;101998.00;;;;10430379;28;20201;-83
2022/08/08 14:51:05;;;;;;;4.15;0.93;;;;;36.70;102011.00;;;;10447900;28;20185;-83
2022/08/08 14:56:09;;;;;;;2.63;0.98;;;;;37.10;101983.00;;;;10462235;28;20205;-83
2022/08/08 15:01:13;;;;;;;3.63;1.00;;;;;37.70;101985.00;;;;10446261;28;20197;-83
2022/08/08 15:06:24;;;;;;;2.35;0.90;;;;;37.90;101986.00;;;;10418430;28;20182;-83
2022/08/08 15:11:27;;;;;;;3.60;0.90;;;;;36.50;101980.00;;;;10394424;28;20203;-83
2022/08/08 15:16:38;;;;;;;1.98;1.00;;;;;32.90;101981.00;;;;10402158;28;20241;-83
2022/08/08 15:21:43;;;;;;;3.85;1.10;;;;;31.20;101985.00;;;;10473432;28;20205;-81
2022/08/08 15:26:45;;;;;;;2.20;1.20;;;;;30.70;101965.00;;;;10454917;28;20231;-83
2022/08/08 15:31:54;;;;;;;4.30;0.90;;;;;35.20;101980.00;;;;10466043;28;20199;-83
2022/08/08 15:37:16;;;;;;;2.08;1.00;;;;;30.60;101985.00;;;;10457917;28;20221;-82
2022/08/08 15:42:21;;;;;;;1.95;1.10;;;;;30.90;101971.00;;;;10429860;28;20211;-82
2022/08/08 15:47:42;;;;;;;1.77;1.15;;;;;35.70;101953.00;;;;10470779;28;20178;-83
2022/08/08 15:53:04;;;;;;;1.42;1.00;;;;;35.70;101958.00;;;;10434840;28;20197;-82
2022/08/08 15:58:08;;;;;;;3.28;1.30;;;;;30.90;101960.00;;;;10453357;28;20567;-81
2022/08/08 16:03:10;;;;;;;4.28;1.45;;;;;28.90;101957.00;;;;10428037;28;20214;-80
2022/08/08 16:08:12;;;;;;;2.25;1.23;;;;;28.00;101953.00;;;;10451730;28;20200;-81
2022/08/08 16:13:14;;;;;;;4.28;1.42;;;;;27.50;101942.00;;;;10452773;28;20243;-82
2022/08/08 16:18:36;;;;;;;2.90;1.20;;;;;26.70;101944.00;;;;10469364;28;20210;-82
2022/08/08 16:23:39;;;;;;;1.75;1.25;;;;;26.40;101946.00;;;;10420237;28;20230;-81
2022/08/08 16:28:42;;;;;;;2.80;1.35;;;;;26.20;101947.00;;;;10412255;28;20193;-81
2022/08/08 16:33:47;;;;;;;6.43;1.70;;;;;26.10;101947.00;;;;10452811;28;20292;-82
2022/08/08 16:39:01;;;;;;;3.25;1.63;;;;;25.90;101943.00;;;;10452757;28;20217;-82
2022/08/08 16:44:23;;;;;;;3.58;1.48;;;;;25.70;101946.00;;;;10429149;28;20192;-81
2022/08/08 16:49:34;;;;;;;5.45;1.42;;;;;25.60;101957.00;;;;10427090;28;20198;-80
2022/08/08 16:54:39;;;;;;;1.92;1.30;;;;;25.40;101957.00;;;;10422589;28;20288;-81
2022/08/08 17:00:02;;;;;;;3.80;1.30;;;;;25.30;101951.00;;;;10467768;28;20236;-81
2022/08/08 17:05:09;;;;;;;3.00;1.20;;;;;25.30;101941.00;;;;10411437;28;20639;-81
2022/08/08 17:10:14;;;;;;;2.65;1.30;;;;;25.20;101946.00;;;;10427257;28;20190;-80
2022/08/08 17:15:20;;;;;;;2.67;1.33;;;;;25.00;101942.00;;;;10426938;28;20194;-81
2022/08/08 17:20:24;;;;;;;4.90;1.23;;;;;25.00;101945.00;;;;10410409;28;20272;-81
2022/08/08 17:25:28;;;;;;;5.07;1.25;;;;;24.90;101944.00;;;;10484248;28;20641;-81
2022/08/08 17:30:50;;;;;;;3.30;1.35;;;;;24.80;101957.00;;;;10437208;28;20178;-80
2022/08/08 17:35:52;;;;;;;4.25;1.35;;;;;24.70;101959.00;;;;10449713;28;20218;-80
2022/08/08 17:41:14;;;;;;;1.95;1.20;;;;;24.60;101966.00;;;;10437078;28;20198;-81
2022/08/08 17:46:40;;;;;;;1.50;1.17;;;;;24.50;101957.00;;;;10450735;28;20696;-81
2022/08/08 17:51:44;;;;;;;2.35;1.25;;;;;24.40;101964.00;;;;10466015;28;20197;-80
2022/08/08 17:56:52;;;;;;;3.92;1.25;;;;;24.20;101968.00;;;;10463227;28;20212;-81
2022/08/08 18:01:58;;;;;;;1.25;1.10;;;;;24.10;101973.00;;;;10434154;28;20217;-81
2022/08/08 18:07:05;;;;;;;3.17;1.58;;;;;24.00;101973.00;;;;10447841;28;20198;-80
2022/08/08 18:12:28;;;;;;;2.60;1.10;;;;;23.80;101970.00;;;;10424739;28;20205;-81
2022/08/08 18:17:30;;;;;;;2.83;1.15;;;;;23.70;101980.00;;;;10431517;28;20259;-81
2022/08/08 18:22:52;;;;;;;7.35;1.75;;;;;23.60;101979.00;;;;10450006;28;20198;-81
2022/08/08 18:27:55;;;;;;;2.97;1.30;;;;;23.40;101975.00;;;;10448927;28;20197;-81
2022/08/08 18:32:57;;;;;;;3.50;1.63;;;;;23.30;101984.00;;;;10432061;28;20193;-81
2022/08/08 18:38:01;;;;;;;4.03;1.52;;;;;23.10;101998.00;;;;10447845;28;20271;-81
2022/08/08 18:43:17;;;;;;;2.88;1.55;;;;;23.00;102003.00;;;;10449206;28;20200;-81
2022/08/08 18:48:20;;;;;;;3.10;1.30;;;;;22.80;102002.00;;;;10430329;28;20193;-81
2022/08/08 18:53:27;;;;;;;6.50;1.45;;;;;22.60;102004.00;;;;10439185;28;20194;-81
2022/08/08 18:58:49;;;;;;;4.63;1.30;;;;;22.30;102021.00;;;;10412023;28;20214;-81
2022/08/08 19:03:51;;;;;;;3.67;1.63;;;;;22.10;102034.00;;;;10477174;28;20297;-81
2022/08/08 19:09:12;;;;;;;8.77;1.50;;;;;21.90;102037.00;;;;10465576;28;20182;-81
2022/08/08 19:14:15;;;;;;;3.78;1.20;;;;;21.70;102038.00;;;;10461240;28;20269;-81
2022/08/08 19:19:21;;;;;;;3.72;1.30;;;;;21.50;102053.00;;;;10396189;28;20791;-81
2022/08/08 19:24:23;;;;;;;2.00;1.23;;;;;21.30;102053.00;;;;10405952;28;20252;-80
2022/08/08 19:29:46;;;;;;;3.75;1.42;;;;;21.10;102060.00;;;;10412643;28;20273;-81
2022/08/08 19:34:51;;;;;;;3.97;0.95;;;;;21.00;102071.00;;;;10430579;28;20216;-81
2022/08/08 19:39:56;;;;;;;3.30;1.10;;;;;20.80;102073.00;;;;10430968;28;20217;-80
2022/08/08 19:44:58;;;;;;;4.63;1.35;;;;;20.70;102072.00;;;;10445973;28;20583;-81
2022/08/08 19:50:08;;;;;;;3.28;1.23;;;;;20.50;102079.00;;;;10424532;28;20194;-80
2022/08/08 19:55:16;;;;;;;5.80;1.55;;;;;20.40;102084.00;;;;10437961;28;20187;-80
2022/08/08 20:00:26;;;;;;;6.53;1.60;;;;;20.30;102082.00;;;;10412805;28;20275;-80
2022/08/08 20:05:33;;;;;;;3.75;1.50;;;;;20.20;102091.00;;;;10442263;28;20429;-81
2022/08/08 20:10:55;;;;;;;4.00;1.25;;;;;20.20;102096.00;;;;10457968;28;20263;-81
2022/08/08 20:15:58;;;;;;;4.50;1.52;;;;;20.10;102098.00;;;;10445429;28;20659;-80
2022/08/08 20:21:02;;;;;;;2.47;1.83;;;;;20.00;102110.00;;;;10418717;28;20222;-80
2022/08/08 20:26:05;;;;;;;3.60;1.30;;;;;19.90;102104.00;;;;10428478;28;20711;-81
2022/08/08 20:31:10;;;;;;;2.83;1.50;;;;;19.80;102116.00;;;;10429857;28;20198;-80
2022/08/08 20:36:20;;;;;;;2.72;1.17;;;;;19.70;102116.00;;;;10428973;28;20221;-81
2022/08/08 20:41:23;;;;;;;2.70;1.38;;;;;19.60;102107.00;;;;10420879;28;20217;-80
2022/08/08 20:46:29;;;;;;;2.10;1.20;;;;;19.50;102110.00;;;;10429292;28;20652;-81
2022/08/08 20:51:31;;;;;;;1.70;1.35;;;;;19.50;102110.00;;;;10420698;28;20640;-81
2022/08/08 20:56:34;;;;;;;2.00;1.27;;;;;19.40;102109.00;;;;10435736;28;20232;-81
2022/08/08 21:01:57;;;;;;;1.95;1.35;;;;;19.30;102115.00;;;;10431070;28;20216;-81
2022/08/08 21:07:09;;;;;;;1.55;1.25;;;;;19.20;102114.00;;;;10447915;28;20201;-80
2022/08/08 21:12:16;;;;;;;8.55;1.50;;;;;19.10;102115.00;;;;10406680;28;20608;-80
2022/08/08 21:17:25;;;;;;;2.85;1.63;;;;;19.10;102116.00;;;;10426131;28;20292;-80
2022/08/08 21:22:28;;;;;;;4.35;1.50;;;;;19.00;102108.00;;;;10425879;28;20183;-81
2022/08/08 21:27:31;;;;;;;1.92;1.30;;;;;18.90;102109.00;;;;10409780;28;20174;-81
2022/08/08 21:32:52;;;;;;;1.23;1.08;;;;;18.80;102113.00;;;;10429651;28;20221;-80
2022/08/08 21:37:54;;;;;;;2.90;1.40;;;;;18.70;102111.00;;;;10408604;28;20218;-80
2022/08/08 21:43:06;;;;;;;3.28;1.65;;;;;18.60;102110.00;;;;10435236;28;20205;-80
2022/08/08 21:48:11;;;;;;;1.55;1.42;;;;;18.60;102110.00;;;;10448197;28;20640;-81
2022/08/08 21:53:25;;;;;;;1.50;1.40;;;;;18.50;102116.00;;;;10419231;28;20336;-82
2022/08/08 21:58:47;;;;;;;7.20;1.45;;;;;18.40;102119.00;;;;10427126;28;20268;-81
2022/08/08 22:03:58;;;;;;;2.90;1.57;;;;;18.30;102122.00;;;;10445276;28;20248;-81
2022/08/08 22:09:02;;;;;;;2.65;1.40;;;;;18.20;102135.00;;;;10448733;28;20196;-81
2022/08/08 22:14:09;;;;;;;2.28;1.70;;;;;18.10;102136.00;;;;10466439;28;20564;-81
2022/08/08 22:19:12;;;;;;;5.07;1.42;;;;;18.10;102135.00;;;;10422231;28;20222;-81
2022/08/08 22:24:17;;;;;;;3.70;1.65;;;;;18.00;102142.00;;;;10407531;28;20225;-81
2022/08/08 22:29:29;;;;;;;2.97;1.70;;;;;17.90;102141.00;;;;10416186;28;20190;-81
2022/08/08 22:34:52;;;;;;;5.68;2.15;;;;;17.90;102149.00;;;;10408154;28;20221;-81
2022/08/08 22:39:54;;;;;;;3.22;1.80;;;;;17.80;102152.00;;;;10405436;28;20222;-81
2022/08/08 22:45:04;;;;;;;2.45;1.70;;;;;17.70;102154.00;;;;10472646;28;20197;-81
2022/08/08 22:50:13;;;;;;;5.93;2.37;;;;;17.60;102160.00;;;;10463512;28;20186;-81
2022/08/08 22:55:27;;;;;;;2.37;1.90;;;;;17.50;102155.00;;;;10448957;28;20252;-82
2022/08/08 23:00:31;;;;;;;2.20;1.73;;;;;17.40;102164.00;;;;10437815;28;20222;-81
2022/08/08 23:05:33;;;;;;;2.50;1.83;;;;;17.30;102168.00;;;;10407104;28;20292;-81
2022/08/08 23:10:50;;;;;;;4.30;2.10;;;;;17.20;102165.00;;;;10465350;28;20178;-81
2022/08/08 23:15:57;;;;;;;3.20;2.10;;;;;17.20;102163.00;;;;10446875;28;20541;-81
2022/08/08 23:21:19;;;;;;;4.33;2.20;;;;;17.10;102157.00;;;;10462979;28;20267;-81
2022/08/08 23:26:22;;;;;;;3.70;2.97;;;;;17.00;102156.00;;;;10446969;28;20245;-81
2022/08/08 23:31:25;;;;;;;3.70;2.30;;;;;16.90;102164.00;;;;10459816;28;20194;-81
2022/08/08 23:36:28;;;;;;;2.10;1.80;;;;;16.80;102167.00;;;;10430346;28;20280;-81
2022/08/08 23:41:30;;;;;;;5.60;2.17;;;;;16.70;102164.00;;;;10429819;28;20228;-80
2022/08/08 23:46:48;;;;;;;2.60;2.00;;;;;16.60;102163.00;;;;10422659;28;20668;-81
2022/08/08 23:52:11;;;;;;;5.43;2.30;;;;;16.60;102161.00;;;;10409598;28;20240;-81
2022/08/08 23:57:16;;;;;;;4.37;2.30;;;;;16.50;102159.00;;;;10441595;28;20202;-81
